sensor_id;sensor_type;location;lat;lon;timestamp;P1;durP1;ratioP1;P2;durP2;ratioP2
69083;SDS011;56185;48.526;9.044;2023-12-07T00:01:07;10.40;;;7.80;;
69083;SDS011;56185;48.526;9.044;2023-12-07T00:03:32;12.15;;;7.88;;
69083;SDS011;56185;48.526;9.044;2023-12-07T00:05:57;12.57;;;8.50;;
69083;SDS011;56185;48.526;9.044;2023-12-07T00:08:22;12.90;;;8.48;;
69083;SDS011;56185;48.526;9.044;2023-12-07T00:10:48;13.80;;;9.25;;
69083;SDS011;56185;48.526;9.044;2023-12-07T00:13:13;14.33;;;8.80;;
69083;SDS011;56185;48.526;9.044;2023-12-07T00:15:39;10.52;;;7.85;;
69083;SDS011;56185;48.526;9.044;2023-12-07T00:18:05;11.68;;;8.32;;
69083;SDS011;56185;48.526;9.044;2023-12-07T00:20:30;14.43;;;9.25;;
69083;SDS011;56185;48.526;9.044;2023-12-07T00:22:55;15.07;;;9.03;;
69083;SDS011;56185;48.526;9.044;2023-12-07T00:25:21;13.18;;;8.45;;
69083;SDS011;56185;48.526;9.044;2023-12-07T00:27:47;11.23;;;8.18;;
69083;SDS011;56185;48.526;9.044;2023-12-07T00:30:15;12.43;;;8.98;;
69083;SDS011;56185;48.526;9.044;2023-12-07T00:32:41;15.57;;;9.48;;
69083;SDS011;56185;48.526;9.044;2023-12-07T00:35:06;12.60;;;8.60;;
69083;SDS011;56185;48.526;9.044;2023-12-07T00:37:35;15.20;;;8.88;;
69083;SDS011;56185;48.526;9.044;2023-12-07T00:40:00;12.48;;;8.48;;
69083;SDS011;56185;48.526;9.044;2023-12-07T00:42:25;14.38;;;9.88;;
69083;SDS011;56185;48.526;9.044;2023-12-07T00:44:51;13.75;;;9.52;;
69083;SDS011;56185;48.526;9.044;2023-12-07T00:47:16;13.37;;;9.13;;
69083;SDS011;56185;48.526;9.044;2023-12-07T00:49:41;14.43;;;9.65;;
69083;SDS011;56185;48.526;9.044;2023-12-07T00:52:06;13.55;;;9.38;;
69083;SDS011;56185;48.526;9.044;2023-12-07T00:54:31;15.13;;;9.87;;
69083;SDS011;56185;48.526;9.044;2023-12-07T00:56:57;14.02;;;9.20;;
69083;SDS011;56185;48.526;9.044;2023-12-07T00:59:22;16.08;;;9.85;;
69083;SDS011;56185;48.526;9.044;2023-12-07T01:01:47;13.27;;;9.02;;
69083;SDS011;56185;48.526;9.044;2023-12-07T01:04:12;14.93;;;8.70;;
69083;SDS011;56185;48.526;9.044;2023-12-07T01:06:38;14.98;;;9.32;;
69083;SDS011;56185;48.526;9.044;2023-12-07T01:09:03;15.70;;;9.60;;
69083;SDS011;56185;48.526;9.044;2023-12-07T01:11:28;13.00;;;8.87;;
69083;SDS011;56185;48.526;9.044;2023-12-07T01:13:53;14.00;;;9.20;;
69083;SDS011;56185;48.526;9.044;2023-12-07T01:16:19;14.60;;;9.02;;
69083;SDS011;56185;48.526;9.044;2023-12-07T01:18:44;14.18;;;9.30;;
69083;SDS011;56185;48.526;9.044;2023-12-07T01:21:09;13.53;;;9.07;;
69083;SDS011;56185;48.526;9.044;2023-12-07T01:23:34;14.07;;;9.15;;
69083;SDS011;56185;48.526;9.044;2023-12-07T01:25:59;13.03;;;8.67;;
69083;SDS011;56185;48.526;9.044;2023-12-07T01:28:25;14.33;;;9.50;;
69083;SDS011;56185;48.526;9.044;2023-12-07T01:30:50;15.13;;;9.90;;
69083;SDS011;56185;48.526;9.044;2023-12-07T01:33:15;13.17;;;9.20;;
69083;SDS011;56185;48.526;9.044;2023-12-07T01:35:40;13.73;;;8.98;;
69083;SDS011;56185;48.526;9.044;2023-12-07T01:38:06;13.88;;;8.98;;
69083;SDS011;56185;48.526;9.044;2023-12-07T01:40:32;13.93;;;9.52;;
69083;SDS011;56185;48.526;9.044;2023-12-07T01:42:57;14.65;;;9.48;;
69083;SDS011;56185;48.526;9.044;2023-12-07T01:45:22;13.37;;;9.27;;
69083;SDS011;56185;48.526;9.044;2023-12-07T01:47:49;13.60;;;9.23;;
69083;SDS011;56185;48.526;9.044;2023-12-07T01:50:15;15.43;;;9.50;;
69083;SDS011;56185;48.526;9.044;2023-12-07T01:52:43;15.90;;;10.65;;
69083;SDS011;56185;48.526;9.044;2023-12-07T01:55:10;15.05;;;9.95;;
69083;SDS011;56185;48.526;9.044;2023-12-07T01:57:36;14.32;;;9.80;;
69083;SDS011;56185;48.526;9.044;2023-12-07T02:00:02;16.15;;;10.63;;
69083;SDS011;56185;48.526;9.044;2023-12-07T02:02:28;17.67;;;9.38;;
69083;SDS011;56185;48.526;9.044;2023-12-07T02:04:53;15.68;;;10.13;;
69083;SDS011;56185;48.526;9.044;2023-12-07T02:07:19;16.20;;;10.50;;
69083;SDS011;56185;48.526;9.044;2023-12-07T02:09:46;14.85;;;9.73;;
69083;SDS011;56185;48.526;9.044;2023-12-07T02:12:11;14.23;;;9.75;;
69083;SDS011;56185;48.526;9.044;2023-12-07T02:14:37;13.23;;;9.27;;
69083;SDS011;56185;48.526;9.044;2023-12-07T02:22:39;16.05;;;10.73;;
69083;SDS011;56185;48.526;9.044;2023-12-07T02:25:08;13.25;;;9.55;;
69083;SDS011;56185;48.526;9.044;2023-12-07T02:27:35;14.30;;;9.30;;
69083;SDS011;56185;48.526;9.044;2023-12-07T02:30:04;13.48;;;8.60;;
69083;SDS011;56185;48.526;9.044;2023-12-07T02:32:30;15.60;;;10.00;;
69083;SDS011;56185;48.526;9.044;2023-12-07T02:34:55;14.50;;;8.82;;
69083;SDS011;56185;48.526;9.044;2023-12-07T02:37:21;14.60;;;8.98;;
69083;SDS011;56185;48.526;9.044;2023-12-07T02:39:47;13.43;;;8.55;;
69083;SDS011;56185;48.526;9.044;2023-12-07T02:42:13;13.45;;;9.25;;
69083;SDS011;56185;48.526;9.044;2023-12-07T02:44:40;13.77;;;8.68;;
69083;SDS011;56185;48.526;9.044;2023-12-07T02:47:07;14.07;;;7.90;;
69083;SDS011;56185;48.526;9.044;2023-12-07T02:49:33;13.38;;;7.80;;
69083;SDS011;56185;48.526;9.044;2023-12-07T02:51:58;10.93;;;7.47;;
69083;SDS011;56185;48.526;9.044;2023-12-07T02:54:23;12.23;;;7.90;;
69083;SDS011;56185;48.526;9.044;2023-12-07T02:56:49;12.07;;;7.95;;
69083;SDS011;56185;48.526;9.044;2023-12-07T02:59:14;14.23;;;8.57;;
69083;SDS011;56185;48.526;9.044;2023-12-07T03:01:39;12.68;;;8.02;;
69083;SDS011;56185;48.526;9.044;2023-12-07T03:04:04;13.82;;;8.43;;
69083;SDS011;56185;48.526;9.044;2023-12-07T03:06:29;12.40;;;7.82;;
69083;SDS011;56185;48.526;9.044;2023-12-07T03:08:56;14.80;;;8.38;;
69083;SDS011;56185;48.526;9.044;2023-12-07T03:11:21;13.93;;;8.88;;
69083;SDS011;56185;48.526;9.044;2023-12-07T03:13:46;13.48;;;8.75;;
69083;SDS011;56185;48.526;9.044;2023-12-07T03:16:11;13.95;;;7.70;;
69083;SDS011;56185;48.526;9.044;2023-12-07T03:18:37;15.68;;;8.43;;
69083;SDS011;56185;48.526;9.044;2023-12-07T03:21:02;13.35;;;8.18;;
69083;SDS011;56185;48.526;9.044;2023-12-07T03:23:28;12.50;;;7.93;;
69083;SDS011;56185;48.526;9.044;2023-12-07T03:25:53;12.50;;;7.40;;
69083;SDS011;56185;48.526;9.044;2023-12-07T03:28:18;13.63;;;8.07;;
69083;SDS011;56185;48.526;9.044;2023-12-07T03:30:43;13.27;;;8.35;;
69083;SDS011;56185;48.526;9.044;2023-12-07T03:33:09;14.45;;;8.43;;
69083;SDS011;56185;48.526;9.044;2023-12-07T03:35:34;12.37;;;7.97;;
69083;SDS011;56185;48.526;9.044;2023-12-07T03:37:59;13.73;;;8.30;;
69083;SDS011;56185;48.526;9.044;2023-12-07T03:40:24;13.10;;;8.40;;
69083;SDS011;56185;48.526;9.044;2023-12-07T03:42:49;12.38;;;8.00;;
69083;SDS011;56185;48.526;9.044;2023-12-07T03:45:15;10.93;;;7.70;;
69083;SDS011;56185;48.526;9.044;2023-12-07T03:47:40;12.00;;;8.03;;
69083;SDS011;56185;48.526;9.044;2023-12-07T03:50:05;12.57;;;7.85;;
69083;SDS011;56185;48.526;9.044;2023-12-07T03:52:31;11.68;;;7.93;;
69083;SDS011;56185;48.526;9.044;2023-12-07T03:54:56;13.07;;;7.22;;
69083;SDS011;56185;48.526;9.044;2023-12-07T03:57:21;13.00;;;8.27;;
69083;SDS011;56185;48.526;9.044;2023-12-07T03:59:47;12.40;;;8.13;;
69083;SDS011;56185;48.526;9.044;2023-12-07T04:02:12;12.00;;;8.00;;
69083;SDS011;56185;48.526;9.044;2023-12-07T04:04:38;12.43;;;7.97;;
69083;SDS011;56185;48.526;9.044;2023-12-07T04:07:03;15.43;;;8.27;;
69083;SDS011;56185;48.526;9.044;2023-12-07T04:09:29;12.73;;;7.78;;
69083;SDS011;56185;48.526;9.044;2023-12-07T04:11:54;12.13;;;7.68;;
69083;SDS011;56185;48.526;9.044;2023-12-07T04:14:19;12.68;;;7.82;;
69083;SDS011;56185;48.526;9.044;2023-12-07T04:16:44;13.27;;;7.60;;
69083;SDS011;56185;48.526;9.044;2023-12-07T04:19:09;13.52;;;8.15;;
69083;SDS011;56185;48.526;9.044;2023-12-07T04:21:35;12.82;;;8.20;;
69083;SDS011;56185;48.526;9.044;2023-12-07T04:24:00;14.40;;;7.85;;
69083;SDS011;56185;48.526;9.044;2023-12-07T04:26:25;12.23;;;7.90;;
69083;SDS011;56185;48.526;9.044;2023-12-07T04:28:50;12.27;;;7.90;;
69083;SDS011;56185;48.526;9.044;2023-12-07T04:31:16;11.93;;;7.82;;
69083;SDS011;56185;48.526;9.044;2023-12-07T04:33:41;13.70;;;8.88;;
69083;SDS011;56185;48.526;9.044;2023-12-07T04:36:06;13.55;;;8.50;;
69083;SDS011;56185;48.526;9.044;2023-12-07T04:38:31;13.68;;;8.68;;
69083;SDS011;56185;48.526;9.044;2023-12-07T04:40:57;13.82;;;7.82;;
69083;SDS011;56185;48.526;9.044;2023-12-07T04:43:25;16.48;;;8.75;;
69083;SDS011;56185;48.526;9.044;2023-12-07T04:45:50;12.30;;;7.60;;
69083;SDS011;56185;48.526;9.044;2023-12-07T04:48:15;14.48;;;8.65;;
69083;SDS011;56185;48.526;9.044;2023-12-07T04:50:41;14.82;;;9.38;;
69083;SDS011;56185;48.526;9.044;2023-12-07T04:53:06;16.50;;;9.80;;
69083;SDS011;56185;48.526;9.044;2023-12-07T04:55:31;12.73;;;8.60;;
69083;SDS011;56185;48.526;9.044;2023-12-07T04:57:56;12.68;;;8.55;;
69083;SDS011;56185;48.526;9.044;2023-12-07T05:00:21;12.45;;;8.48;;
69083;SDS011;56185;48.526;9.044;2023-12-07T05:02:47;13.02;;;8.20;;
69083;SDS011;56185;48.526;9.044;2023-12-07T05:05:12;14.10;;;7.93;;
69083;SDS011;56185;48.526;9.044;2023-12-07T05:07:37;13.23;;;8.80;;
69083;SDS011;56185;48.526;9.044;2023-12-07T05:10:03;11.77;;;8.03;;
69083;SDS011;56185;48.526;9.044;2023-12-07T05:12:28;12.32;;;7.97;;
69083;SDS011;56185;48.526;9.044;2023-12-07T05:14:53;13.83;;;8.67;;
69083;SDS011;56185;48.526;9.044;2023-12-07T05:17:19;12.88;;;8.30;;
69083;SDS011;56185;48.526;9.044;2023-12-07T05:19:44;13.23;;;7.80;;
69083;SDS011;56185;48.526;9.044;2023-12-07T05:22:09;14.80;;;9.52;;
69083;SDS011;56185;48.526;9.044;2023-12-07T05:24:35;13.40;;;8.60;;
69083;SDS011;56185;48.526;9.044;2023-12-07T05:27:00;14.00;;;8.57;;
69083;SDS011;56185;48.526;9.044;2023-12-07T05:29:25;14.05;;;8.23;;
69083;SDS011;56185;48.526;9.044;2023-12-07T05:31:51;15.43;;;8.70;;
69083;SDS011;56185;48.526;9.044;2023-12-07T05:34:19;14.65;;;8.13;;
69083;SDS011;56185;48.526;9.044;2023-12-07T05:36:44;14.65;;;9.48;;
69083;SDS011;56185;48.526;9.044;2023-12-07T05:39:09;14.68;;;9.38;;
69083;SDS011;56185;48.526;9.044;2023-12-07T05:41:35;16.40;;;9.82;;
69083;SDS011;56185;48.526;9.044;2023-12-07T05:44:00;16.98;;;9.65;;
69083;SDS011;56185;48.526;9.044;2023-12-07T05:46:25;18.15;;;9.70;;
69083;SDS011;56185;48.526;9.044;2023-12-07T05:48:50;18.42;;;11.40;;
69083;SDS011;56185;48.526;9.044;2023-12-07T05:51:16;15.07;;;9.02;;
69083;SDS011;56185;48.526;9.044;2023-12-07T05:53:43;22.23;;;10.23;;
69083;SDS011;56185;48.526;9.044;2023-12-07T05:56:09;21.92;;;9.57;;
69083;SDS011;56185;48.526;9.044;2023-12-07T05:58:35;36.80;;;10.65;;
69083;SDS011;56185;48.526;9.044;2023-12-07T06:01:00;25.25;;;9.80;;
69083;SDS011;56185;48.526;9.044;2023-12-07T06:03:26;17.70;;;9.63;;
69083;SDS011;56185;48.526;9.044;2023-12-07T06:05:51;19.10;;;10.30;;
69083;SDS011;56185;48.526;9.044;2023-12-07T06:08:17;19.65;;;9.80;;
69083;SDS011;56185;48.526;9.044;2023-12-07T06:10:42;20.98;;;10.27;;
69083;SDS011;56185;48.526;9.044;2023-12-07T06:13:08;18.52;;;9.70;;
69083;SDS011;56185;48.526;9.044;2023-12-07T06:15:34;15.40;;;8.80;;
69083;SDS011;56185;48.526;9.044;2023-12-07T06:17:59;17.00;;;9.07;;
69083;SDS011;56185;48.526;9.044;2023-12-07T06:20:25;15.70;;;8.57;;
69083;SDS011;56185;48.526;9.044;2023-12-07T06:22:50;19.00;;;9.23;;
69083;SDS011;56185;48.526;9.044;2023-12-07T06:25:16;18.33;;;10.03;;
69083;SDS011;56185;48.526;9.044;2023-12-07T06:27:41;17.63;;;10.02;;
69083;SDS011;56185;48.526;9.044;2023-12-07T06:30:06;17.10;;;10.00;;
69083;SDS011;56185;48.526;9.044;2023-12-07T06:32:32;17.15;;;10.00;;
69083;SDS011;56185;48.526;9.044;2023-12-07T06:34:58;18.67;;;10.38;;
69083;SDS011;56185;48.526;9.044;2023-12-07T06:37:23;24.38;;;10.50;;
69083;SDS011;56185;48.526;9.044;2023-12-07T06:39:48;19.65;;;10.40;;
69083;SDS011;56185;48.526;9.044;2023-12-07T06:42:13;17.40;;;10.32;;
69083;SDS011;56185;48.526;9.044;2023-12-07T06:44:39;26.40;;;12.27;;
69083;SDS011;56185;48.526;9.044;2023-12-07T06:47:04;20.35;;;10.57;;
69083;SDS011;56185;48.526;9.044;2023-12-07T06:49:29;18.52;;;10.20;;
69083;SDS011;56185;48.526;9.044;2023-12-07T06:51:55;29.17;;;11.80;;
69083;SDS011;56185;48.526;9.044;2023-12-07T06:54:20;17.38;;;10.30;;
69083;SDS011;56185;48.526;9.044;2023-12-07T06:56:45;21.40;;;10.53;;
69083;SDS011;56185;48.526;9.044;2023-12-07T06:59:11;20.80;;;10.07;;
69083;SDS011;56185;48.526;9.044;2023-12-07T07:01:36;32.38;;;10.90;;
69083;SDS011;56185;48.526;9.044;2023-12-07T07:04:01;20.33;;;10.70;;
69083;SDS011;56185;48.526;9.044;2023-12-07T07:06:26;19.92;;;10.60;;
69083;SDS011;56185;48.526;9.044;2023-12-07T07:08:52;19.30;;;10.65;;
69083;SDS011;56185;48.526;9.044;2023-12-07T07:11:17;20.38;;;10.43;;
69083;SDS011;56185;48.526;9.044;2023-12-07T07:13:42;21.90;;;10.85;;
69083;SDS011;56185;48.526;9.044;2023-12-07T07:16:07;21.60;;;11.30;;
69083;SDS011;56185;48.526;9.044;2023-12-07T07:18:33;20.40;;;11.05;;
69083;SDS011;56185;48.526;9.044;2023-12-07T07:20:59;21.45;;;11.20;;
69083;SDS011;56185;48.526;9.044;2023-12-07T07:23:24;20.85;;;9.48;;
69083;SDS011;56185;48.526;9.044;2023-12-07T07:25:50;15.70;;;9.10;;
69083;SDS011;56185;48.526;9.044;2023-12-07T07:28:15;22.25;;;10.57;;
69083;SDS011;56185;48.526;9.044;2023-12-07T07:30:40;22.88;;;9.15;;
69083;SDS011;56185;48.526;9.044;2023-12-07T07:33:05;14.88;;;9.30;;
69083;SDS011;56185;48.526;9.044;2023-12-07T07:35:31;24.10;;;9.00;;
69083;SDS011;56185;48.526;9.044;2023-12-07T07:37:56;17.35;;;9.10;;
69083;SDS011;56185;48.526;9.044;2023-12-07T07:40:21;17.50;;;9.13;;
69083;SDS011;56185;48.526;9.044;2023-12-07T07:42:47;19.23;;;10.60;;
69083;SDS011;56185;48.526;9.044;2023-12-07T07:45:12;19.05;;;10.35;;
69083;SDS011;56185;48.526;9.044;2023-12-07T07:47:37;16.00;;;9.27;;
69083;SDS011;56185;48.526;9.044;2023-12-07T07:50:03;14.77;;;8.85;;
69083;SDS011;56185;48.526;9.044;2023-12-07T07:52:29;21.23;;;9.95;;
69083;SDS011;56185;48.526;9.044;2023-12-07T07:54:54;17.92;;;9.55;;
69083;SDS011;56185;48.526;9.044;2023-12-07T07:57:20;21.48;;;9.30;;
69083;SDS011;56185;48.526;9.044;2023-12-07T07:59:45;23.85;;;10.07;;
69083;SDS011;56185;48.526;9.044;2023-12-07T08:02:15;17.30;;;10.40;;
69083;SDS011;56185;48.526;9.044;2023-12-07T08:04:40;17.27;;;10.45;;
69083;SDS011;56185;48.526;9.044;2023-12-07T08:07:07;20.17;;;10.15;;
69083;SDS011;56185;48.526;9.044;2023-12-07T08:09:34;22.40;;;10.50;;
69083;SDS011;56185;48.526;9.044;2023-12-07T08:11:59;18.10;;;9.20;;
69083;SDS011;56185;48.526;9.044;2023-12-07T08:14:24;17.48;;;10.07;;
69083;SDS011;56185;48.526;9.044;2023-12-07T08:16:50;17.88;;;10.13;;
69083;SDS011;56185;48.526;9.044;2023-12-07T08:19:15;24.73;;;10.30;;
69083;SDS011;56185;48.526;9.044;2023-12-07T08:21:40;18.92;;;10.00;;
69083;SDS011;56185;48.526;9.044;2023-12-07T08:24:05;19.55;;;9.95;;
69083;SDS011;56185;48.526;9.044;2023-12-07T08:26:31;19.20;;;10.70;;
69083;SDS011;56185;48.526;9.044;2023-12-07T08:28:57;20.02;;;10.38;;
69083;SDS011;56185;48.526;9.044;2023-12-07T08:31:22;18.65;;;9.65;;
69083;SDS011;56185;48.526;9.044;2023-12-07T08:33:48;20.58;;;9.98;;
69083;SDS011;56185;48.526;9.044;2023-12-07T08:36:13;16.60;;;9.85;;
69083;SDS011;56185;48.526;9.044;2023-12-07T08:38:38;17.08;;;10.23;;
69083;SDS011;56185;48.526;9.044;2023-12-07T08:41:03;17.60;;;9.65;;
69083;SDS011;56185;48.526;9.044;2023-12-07T08:43:29;20.58;;;9.93;;
69083;SDS011;56185;48.526;9.044;2023-12-07T08:45:54;17.75;;;9.95;;
69083;SDS011;56185;48.526;9.044;2023-12-07T08:48:21;18.85;;;10.68;;
69083;SDS011;56185;48.526;9.044;2023-12-07T08:50:47;20.65;;;10.52;;
69083;SDS011;56185;48.526;9.044;2023-12-07T08:53:12;18.55;;;9.95;;
69083;SDS011;56185;48.526;9.044;2023-12-07T08:55:37;18.48;;;9.18;;
69083;SDS011;56185;48.526;9.044;2023-12-07T08:58:03;17.25;;;9.35;;
69083;SDS011;56185;48.526;9.044;2023-12-07T09:00:28;21.55;;;9.25;;
69083;SDS011;56185;48.526;9.044;2023-12-07T09:02:53;25.67;;;9.80;;
69083;SDS011;56185;48.526;9.044;2023-12-07T09:05:19;25.13;;;9.98;;
69083;SDS011;56185;48.526;9.044;2023-12-07T09:07:44;26.60;;;9.32;;
69083;SDS011;56185;48.526;9.044;2023-12-07T09:10:09;17.30;;;9.85;;
69083;SDS011;56185;48.526;9.044;2023-12-07T09:12:35;14.80;;;8.98;;
69083;SDS011;56185;48.526;9.044;2023-12-07T09:15:01;15.13;;;9.63;;
69083;SDS011;56185;48.526;9.044;2023-12-07T09:17:27;18.90;;;9.25;;
69083;SDS011;56185;48.526;9.044;2023-12-07T09:19:52;14.00;;;8.43;;
69083;SDS011;56185;48.526;9.044;2023-12-07T09:22:17;17.08;;;9.18;;
69083;SDS011;56185;48.526;9.044;2023-12-07T09:24:43;19.75;;;9.57;;
69083;SDS011;56185;48.526;9.044;2023-12-07T09:27:08;17.90;;;10.45;;
69083;SDS011;56185;48.526;9.044;2023-12-07T09:29:33;26.10;;;9.10;;
69083;SDS011;56185;48.526;9.044;2023-12-07T09:31:58;13.82;;;8.80;;
69083;SDS011;56185;48.526;9.044;2023-12-07T09:34:24;14.77;;;9.07;;
69083;SDS011;56185;48.526;9.044;2023-12-07T09:36:49;14.80;;;9.47;;
69083;SDS011;56185;48.526;9.044;2023-12-07T09:39:14;17.77;;;9.50;;
69083;SDS011;56185;48.526;9.044;2023-12-07T09:41:39;15.70;;;9.77;;
69083;SDS011;56185;48.526;9.044;2023-12-07T09:44:07;16.02;;;9.93;;
69083;SDS011;56185;48.526;9.044;2023-12-07T09:46:35;22.85;;;9.00;;
69083;SDS011;56185;48.526;9.044;2023-12-07T09:49:01;19.17;;;10.43;;
69083;SDS011;56185;48.526;9.044;2023-12-07T09:51:27;18.75;;;10.30;;
69083;SDS011;56185;48.526;9.044;2023-12-07T09:53:53;17.15;;;9.80;;
69083;SDS011;56185;48.526;9.044;2023-12-07T09:56:18;16.40;;;10.20;;
69083;SDS011;56185;48.526;9.044;2023-12-07T09:58:44;17.17;;;10.02;;
69083;SDS011;56185;48.526;9.044;2023-12-07T10:01:09;19.88;;;10.45;;
69083;SDS011;56185;48.526;9.044;2023-12-07T10:03:34;15.63;;;9.00;;
69083;SDS011;56185;48.526;9.044;2023-12-07T10:05:59;15.27;;;8.77;;
69083;SDS011;56185;48.526;9.044;2023-12-07T10:08:27;14.57;;;8.93;;
69083;SDS011;56185;48.526;9.044;2023-12-07T10:11:15;11.70;;;8.18;;
69083;SDS011;56185;48.526;9.044;2023-12-07T10:13:40;12.32;;;8.23;;
69083;SDS011;56185;48.526;9.044;2023-12-07T10:16:16;13.43;;;8.50;;
69083;SDS011;56185;48.526;9.044;2023-12-07T10:18:42;15.38;;;9.05;;
69083;SDS011;56185;48.526;9.044;2023-12-07T10:21:08;15.18;;;8.73;;
69083;SDS011;56185;48.526;9.044;2023-12-07T10:23:36;14.82;;;8.63;;
69083;SDS011;56185;48.526;9.044;2023-12-07T10:26:02;12.90;;;7.80;;
69083;SDS011;56185;48.526;9.044;2023-12-07T10:28:29;11.70;;;8.63;;
69083;SDS011;56185;48.526;9.044;2023-12-07T10:30:56;11.35;;;7.43;;
69083;SDS011;56185;48.526;9.044;2023-12-07T10:33:22;12.38;;;7.90;;
69083;SDS011;56185;48.526;9.044;2023-12-07T10:35:47;11.35;;;7.65;;
69083;SDS011;56185;48.526;9.044;2023-12-07T10:38:12;12.35;;;7.97;;
69083;SDS011;56185;48.526;9.044;2023-12-07T10:40:38;11.82;;;7.43;;
69083;SDS011;56185;48.526;9.044;2023-12-07T10:43:06;11.32;;;7.82;;
69083;SDS011;56185;48.526;9.044;2023-12-07T10:45:33;12.23;;;8.15;;
69083;SDS011;56185;48.526;9.044;2023-12-07T10:48:05;10.88;;;7.47;;
69083;SDS011;56185;48.526;9.044;2023-12-07T10:50:34;10.80;;;7.25;;
69083;SDS011;56185;48.526;9.044;2023-12-07T10:53:04;11.60;;;7.38;;
69083;SDS011;56185;48.526;9.044;2023-12-07T10:55:35;10.88;;;7.45;;
69083;SDS011;56185;48.526;9.044;2023-12-07T10:58:07;11.63;;;7.60;;
69083;SDS011;56185;48.526;9.044;2023-12-07T11:00:33;10.60;;;7.00;;
69083;SDS011;56185;48.526;9.044;2023-12-07T11:02:59;10.18;;;7.13;;
69083;SDS011;56185;48.526;9.044;2023-12-07T11:05:25;9.27;;;6.70;;
69083;SDS011;56185;48.526;9.044;2023-12-07T11:07:59;11.15;;;7.40;;
69083;SDS011;56185;48.526;9.044;2023-12-07T11:10:31;10.10;;;7.60;;
69083;SDS011;56185;48.526;9.044;2023-12-07T11:13:07;10.48;;;7.70;;
69083;SDS011;56185;48.526;9.044;2023-12-07T11:15:39;11.68;;;7.45;;
69083;SDS011;56185;48.526;9.044;2023-12-07T11:18:04;10.50;;;7.60;;
69083;SDS011;56185;48.526;9.044;2023-12-07T11:23:10;12.02;;;7.93;;
69083;SDS011;56185;48.526;9.044;2023-12-07T11:25:39;11.48;;;7.45;;
69083;SDS011;56185;48.526;9.044;2023-12-07T11:28:10;12.35;;;7.75;;
69083;SDS011;56185;48.526;9.044;2023-12-07T11:30:38;12.77;;;8.07;;
69083;SDS011;56185;48.526;9.044;2023-12-07T11:33:07;12.38;;;7.97;;
69083;SDS011;56185;48.526;9.044;2023-12-07T11:35:33;12.75;;;8.20;;
69083;SDS011;56185;48.526;9.044;2023-12-07T11:38:02;14.02;;;8.45;;
69083;SDS011;56185;48.526;9.044;2023-12-07T11:40:29;20.55;;;11.80;;
69083;SDS011;56185;48.526;9.044;2023-12-07T11:42:55;11.15;;;7.65;;
69083;SDS011;56185;48.526;9.044;2023-12-07T11:45:36;11.13;;;8.23;;
69083;SDS011;56185;48.526;9.044;2023-12-07T11:48:10;12.57;;;8.05;;
69083;SDS011;56185;48.526;9.044;2023-12-07T11:50:43;12.15;;;8.43;;
69083;SDS011;56185;48.526;9.044;2023-12-07T11:53:23;11.73;;;8.20;;
69083;SDS011;56185;48.526;9.044;2023-12-07T11:55:50;12.98;;;8.20;;
69083;SDS011;56185;48.526;9.044;2023-12-07T11:58:16;16.08;;;8.25;;
69083;SDS011;56185;48.526;9.044;2023-12-07T12:00:43;11.77;;;8.02;;
69083;SDS011;56185;48.526;9.044;2023-12-07T12:03:08;13.23;;;8.45;;
69083;SDS011;56185;48.526;9.044;2023-12-07T12:05:34;11.88;;;8.15;;
69083;SDS011;56185;48.526;9.044;2023-12-07T12:07:59;14.05;;;9.15;;
69083;SDS011;56185;48.526;9.044;2023-12-07T12:10:24;15.45;;;9.18;;
69083;SDS011;56185;48.526;9.044;2023-12-07T12:12:49;15.17;;;9.60;;
69083;SDS011;56185;48.526;9.044;2023-12-07T12:15:15;15.70;;;8.70;;
69083;SDS011;56185;48.526;9.044;2023-12-07T12:17:40;16.45;;;9.40;;
69083;SDS011;56185;48.526;9.044;2023-12-07T12:20:05;13.63;;;8.85;;
69083;SDS011;56185;48.526;9.044;2023-12-07T12:22:31;13.63;;;9.13;;
69083;SDS011;56185;48.526;9.044;2023-12-07T12:24:57;15.87;;;9.03;;
69083;SDS011;56185;48.526;9.044;2023-12-07T12:27:23;12.13;;;8.25;;
69083;SDS011;56185;48.526;9.044;2023-12-07T12:29:48;15.02;;;8.48;;
69083;SDS011;56185;48.526;9.044;2023-12-07T12:32:13;13.93;;;8.20;;
69083;SDS011;56185;48.526;9.044;2023-12-07T12:34:38;12.23;;;8.38;;
69083;SDS011;56185;48.526;9.044;2023-12-07T12:37:04;12.37;;;8.23;;
69083;SDS011;56185;48.526;9.044;2023-12-07T12:39:30;15.45;;;8.55;;
69083;SDS011;56185;48.526;9.044;2023-12-07T12:41:56;16.17;;;9.10;;
69083;SDS011;56185;48.526;9.044;2023-12-07T12:44:22;13.93;;;8.85;;
69083;SDS011;56185;48.526;9.044;2023-12-07T12:46:48;13.18;;;8.27;;
69083;SDS011;56185;48.526;9.044;2023-12-07T12:49:13;11.35;;;7.93;;
69083;SDS011;56185;48.526;9.044;2023-12-07T12:51:38;12.93;;;7.68;;
69083;SDS011;56185;48.526;9.044;2023-12-07T12:54:04;11.40;;;7.43;;
69083;SDS011;56185;48.526;9.044;2023-12-07T12:56:29;10.93;;;7.55;;
69083;SDS011;56185;48.526;9.044;2023-12-07T12:58:54;10.63;;;7.00;;
69083;SDS011;56185;48.526;9.044;2023-12-07T13:01:20;8.52;;;6.05;;
69083;SDS011;56185;48.526;9.044;2023-12-07T13:03:47;10.35;;;6.45;;
69083;SDS011;56185;48.526;9.044;2023-12-07T13:06:12;9.27;;;6.18;;
69083;SDS011;56185;48.526;9.044;2023-12-07T13:08:38;11.10;;;6.50;;
69083;SDS011;56185;48.526;9.044;2023-12-07T13:11:04;8.52;;;5.88;;
69083;SDS011;56185;48.526;9.044;2023-12-07T13:13:29;8.65;;;5.38;;
69083;SDS011;56185;48.526;9.044;2023-12-07T13:15:54;10.17;;;6.37;;
69083;SDS011;56185;48.526;9.044;2023-12-07T13:18:19;9.70;;;5.85;;
69083;SDS011;56185;48.526;9.044;2023-12-07T13:20:45;7.80;;;5.40;;
69083;SDS011;56185;48.526;9.044;2023-12-07T13:23:10;7.72;;;4.95;;
69083;SDS011;56185;48.526;9.044;2023-12-07T13:25:35;6.97;;;4.68;;
69083;SDS011;56185;48.526;9.044;2023-12-07T13:28:00;6.05;;;3.88;;
69083;SDS011;56185;48.526;9.044;2023-12-07T13:30:26;6.28;;;3.80;;
69083;SDS011;56185;48.526;9.044;2023-12-07T13:32:51;8.07;;;4.10;;
69083;SDS011;56185;48.526;9.044;2023-12-07T13:35:16;6.93;;;3.97;;
69083;SDS011;56185;48.526;9.044;2023-12-07T13:37:41;8.83;;;3.73;;
69083;SDS011;56185;48.526;9.044;2023-12-07T13:40:07;5.53;;;3.80;;
69083;SDS011;56185;48.526;9.044;2023-12-07T13:42:33;6.13;;;4.10;;
69083;SDS011;56185;48.526;9.044;2023-12-07T13:44:58;4.55;;;3.47;;
69083;SDS011;56185;48.526;9.044;2023-12-07T13:47:24;5.47;;;3.70;;
69083;SDS011;56185;48.526;9.044;2023-12-07T13:49:50;4.80;;;3.13;;
69083;SDS011;56185;48.526;9.044;2023-12-07T13:52:16;5.88;;;3.55;;
69083;SDS011;56185;48.526;9.044;2023-12-07T13:54:41;6.32;;;3.33;;
69083;SDS011;56185;48.526;9.044;2023-12-07T13:57:06;6.47;;;3.00;;
69083;SDS011;56185;48.526;9.044;2023-12-07T13:59:32;7.32;;;3.20;;
69083;SDS011;56185;48.526;9.044;2023-12-07T14:01:57;5.28;;;2.65;;
69083;SDS011;56185;48.526;9.044;2023-12-07T14:04:22;2.72;;;1.90;;
69083;SDS011;56185;48.526;9.044;2023-12-07T14:06:47;2.80;;;2.00;;
69083;SDS011;56185;48.526;9.044;2023-12-07T14:09:13;3.23;;;2.03;;
69083;SDS011;56185;48.526;9.044;2023-12-07T14:11:38;3.22;;;2.10;;
69083;SDS011;56185;48.526;9.044;2023-12-07T14:14:03;3.13;;;1.77;;
69083;SDS011;56185;48.526;9.044;2023-12-07T14:16:28;4.40;;;2.30;;
69083;SDS011;56185;48.526;9.044;2023-12-07T14:18:54;3.58;;;2.00;;
69083;SDS011;56185;48.526;9.044;2023-12-07T14:21:19;3.00;;;2.05;;
69083;SDS011;56185;48.526;9.044;2023-12-07T14:23:45;2.72;;;1.92;;
69083;SDS011;56185;48.526;9.044;2023-12-07T14:26:10;3.13;;;1.80;;
69083;SDS011;56185;48.526;9.044;2023-12-07T14:28:36;2.90;;;1.90;;
69083;SDS011;56185;48.526;9.044;2023-12-07T14:31:01;2.50;;;1.77;;
69083;SDS011;56185;48.526;9.044;2023-12-07T14:33:26;3.35;;;2.20;;